Time;durP1;ratioP1;P1;durP2;ratioP2;P2;SDS_P1;SDS_P2;PMS_P1;PMS_P2;Temp;Humidity;BMP_temperature;BMP_pressure;BME280_temperature;BME280_humidity;BME280_pressure;Samples;Min_cycle;Max_cycle;Signal;HPM_P1;HPM_P2
2021/04/26 00:02:08;;;;;;;2.07;1.50;;;2.70;99.90;;;;;;6254912;28;20234;-71
2021/04/26 00:05:14;;;;;;;3.30;1.80;;;2.70;99.90;;;;;;6221983;28;20636;-71
2021/04/26 00:08:16;;;;;;;2.70;1.43;;;2.70;99.90;;;;;;6196593;28;20635;-71
2021/04/26 00:11:17;;;;;;;2.47;1.27;;;2.70;99.90;;;;;;6230535;28;20314;-71
2021/04/26 00:14:19;;;;;;;2.93;1.70;;;2.70;99.90;;;;;;6196282;28;20640;-71
2021/04/26 00:17:21;;;;;;;3.57;1.63;;;2.60;99.90;;;;;;6230597;28;20600;-71
2021/04/26 00:20:27;;;;;;;3.63;1.50;;;2.60;99.90;;;;;;6247766;28;20600;-71
2021/04/26 00:23:29;;;;;;;2.60;1.80;;;2.50;99.90;;;;;;6246426;28;20325;-71
2021/04/26 00:26:31;;;;;;;2.77;2.00;;;2.50;99.90;;;;;;6278967;28;20864;-71
2021/04/26 00:29:33;;;;;;;1.73;1.43;;;2.30;99.90;;;;;;6262220;28;20337;-71
2021/04/26 00:32:35;;;;;;;1.70;1.40;;;2.30;99.90;;;;;;6244834;28;20321;-71
2021/04/26 00:35:38;;;;;;;6.10;2.13;;;2.20;99.90;;;;;;6240845;28;20700;-71
2021/04/26 00:38:39;;;;;;;9.03;2.30;;;2.20;99.90;;;;;;6230242;28;20223;-71
2021/04/26 00:41:41;;;;;;;8.83;1.87;;;2.10;99.90;;;;;;6231064;28;20234;-71
2021/04/26 00:44:43;;;;;;;2.97;1.93;;;2.10;99.90;;;;;;6254212;28;20245;-71
2021/04/26 00:47:46;;;;;;;4.00;1.97;;;2.00;99.90;;;;;;6254328;28;20345;-71
2021/04/26 00:50:48;;;;;;;1.90;1.70;;;1.90;99.90;;;;;;6254292;28;20231;-71
2021/04/26 00:53:51;;;;;;;2.90;2.10;;;1.80;99.90;;;;;;6254598;28;20782;-71
2021/04/26 00:56:53;;;;;;;2.70;1.80;;;1.80;99.90;;;;;;6237040;28;20239;-71
2021/04/26 00:59:56;;;;;;;3.40;1.93;;;1.70;99.90;;;;;;6264754;28;20371;-71
2021/04/26 01:02:59;;;;;;;4.33;2.63;;;1.70;99.90;;;;;;6265509;28;20238;-71
2021/04/26 01:06:03;;;;;;;2.00;1.33;;;1.60;99.90;;;;;;6219945;28;20228;-71
2021/04/26 01:09:05;;;;;;;3.83;2.17;;;1.60;99.90;;;;;;6200254;28;20211;-71
2021/04/26 01:12:22;;;;;;;3.37;1.90;;;1.60;99.90;;;;;;6235232;28;20212;-71
2021/04/26 01:15:35;;;;;;;2.43;1.83;;;1.60;99.90;;;;;;6199553;28;20224;-71
2021/04/26 01:19:01;;;;;;;2.07;1.67;;;1.60;99.90;;;;;;6215933;28;20314;-71
2021/04/26 01:22:29;;;;;;;3.27;1.80;;;1.60;99.90;;;;;;6234437;28;20236;-71
2021/04/26 01:25:33;;;;;;;5.17;2.40;;;1.60;99.90;;;;;;6233758;28;20243;-71
2021/04/26 01:29:03;;;;;;;3.03;1.83;;;1.50;99.90;;;;;;6200359;28;20235;-71
2021/04/26 01:32:18;;;;;;;4.30;2.20;;;1.50;99.90;;;;;;6216924;28;20250;-71
2021/04/26 01:35:23;;;;;;;2.67;2.00;;;1.40;99.90;;;;;;6233301;28;20235;-71
2021/04/26 01:38:34;;;;;;;3.27;1.93;;;1.30;99.90;;;;;;6258349;28;20239;-71
2021/04/26 01:41:37;;;;;;;3.13;1.80;;;1.30;99.90;;;;;;6257859;28;20266;-71
2021/04/26 01:44:39;;;;;;;2.87;1.93;;;1.20;99.90;;;;;;6241180;28;20347;-71
2021/04/26 01:47:46;;;;;;;3.77;1.80;;;1.20;99.90;;;;;;6222566;28;20227;-71
2021/04/26 01:50:50;;;;;;;3.23;1.50;;;1.20;99.90;;;;;;6216175;28;20716;-71
2021/04/26 01:53:54;;;;;;;2.40;1.80;;;1.30;99.90;;;;;;6234081;28;20239;-71
2021/04/26 01:56:57;;;;;;;3.00;1.70;;;1.30;99.90;;;;;;6216170;28;20235;-71
2021/04/26 02:00:26;;;;;;;2.30;1.43;;;1.30;99.90;;;;;;6215961;28;20220;-71
2021/04/26 02:03:35;;;;;;;3.37;1.77;;;1.30;99.90;;;;;;6233991;28;20243;-71
2021/04/26 02:06:40;;;;;;;2.47;1.60;;;1.30;99.90;;;;;;6257130;28;20633;-71
2021/04/26 02:10:01;;;;;;;2.50;1.30;;;1.20;99.90;;;;;;6257667;28;20231;-71
2021/04/26 02:13:05;;;;;;;2.80;1.60;;;1.30;99.90;;;;;;6255089;28;20238;-71
2021/04/26 02:16:07;;;;;;;2.17;1.97;;;1.20;99.90;;;;;;6239976;28;20227;-71
2021/04/26 02:19:11;;;;;;;3.20;1.73;;;1.20;99.90;;;;;;6257315;28;20587;-71
2021/04/26 02:22:17;;;;;;;2.37;1.80;;;1.30;99.90;;;;;;6238191;28;20691;-71
2021/04/26 02:25:27;;;;;;;2.83;1.67;;;1.30;99.90;;;;;;6238330;28;20600;-71
2021/04/26 02:28:30;;;;;;;3.00;1.47;;;1.40;99.90;;;;;;6222405;28;20771;-71
2021/04/26 02:31:34;;;;;;;2.87;1.70;;;1.50;99.90;;;;;;6256982;28;20720;-71
2021/04/26 02:34:42;;;;;;;2.87;1.67;;;1.50;99.90;;;;;;6211621;28;20234;-71
2021/04/26 02:37:58;;;;;;;1.53;1.17;;;1.40;99.90;;;;;;6232962;28;20766;-71
2021/04/26 02:41:20;;;;;;;2.00;1.63;;;1.40;99.90;;;;;;6230820;28;20732;-71
2021/04/26 02:44:29;;;;;;;2.03;1.70;;;1.40;99.90;;;;;;6230655;28;20243;-71
2021/04/26 02:47:38;;;;;;;2.43;1.60;;;1.40;99.90;;;;;;6244761;28;20289;-71
2021/04/26 02:50:52;;;;;;;1.77;1.23;;;1.40;99.90;;;;;;6238921;28;20615;-71
2021/04/26 02:53:56;;;;;;;3.03;2.30;;;1.40;99.90;;;;;;6238310;28;20281;-71
2021/04/26 02:56:58;;;;;;;3.00;1.70;;;1.40;99.90;;;;;;6237958;28;20235;-71
2021/04/26 03:00:10;;;;;;;2.40;1.63;;;1.40;99.90;;;;;;6221936;28;20685;-71
2021/04/26 03:03:32;;;;;;;3.53;1.70;;;1.40;99.90;;;;;;6235626;28;20231;-71
2021/04/26 03:06:38;;;;;;;2.47;1.60;;;1.40;99.90;;;;;;6231303;28;20735;-71
2021/04/26 03:09:55;;;;;;;3.93;1.90;;;1.40;99.90;;;;;;6230429;28;20322;-71
2021/04/26 03:13:00;;;;;;;3.73;1.80;;;1.40;99.90;;;;;;6215445;28;20232;-72
2021/04/26 03:16:04;;;;;;;2.10;1.60;;;1.40;99.90;;;;;;6213584;28;20288;-72
2021/04/26 03:19:09;;;;;;;3.03;1.57;;;1.30;99.90;;;;;;6235103;28;20266;-71
2021/04/26 03:22:13;;;;;;;2.63;1.60;;;1.30;99.90;;;;;;6239025;28;20657;-71
2021/04/26 03:25:22;;;;;;;2.80;1.70;;;1.30;99.90;;;;;;6221953;28;20231;-71
2021/04/26 03:28:24;;;;;;;2.00;1.40;;;1.30;99.90;;;;;;6255458;28;20231;-71
2021/04/26 03:31:29;;;;;;;4.27;2.40;;;1.30;99.90;;;;;;6254163;28;20239;-71
2021/04/26 03:34:35;;;;;;;4.47;1.83;;;1.30;99.90;;;;;;6239764;28;20231;-71
2021/04/26 03:37:38;;;;;;;2.80;1.80;;;1.30;99.90;;;;;;6254578;28;20238;-71
2021/04/26 03:40:41;;;;;;;2.57;1.77;;;1.30;99.90;;;;;;6237295;28;20238;-71
2021/04/26 03:43:45;;;;;;;2.47;1.87;;;1.30;99.90;;;;;;6238118;28;20237;-71
2021/04/26 03:46:55;;;;;;;2.67;1.70;;;1.30;99.90;;;;;;6255613;28;20376;-71
2021/04/26 03:50:16;;;;;;;2.83;1.70;;;1.30;99.90;;;;;;6255609;28;20314;-71
2021/04/26 03:53:36;;;;;;;2.67;1.50;;;1.20;99.90;;;;;;6254938;28;20283;-71
2021/04/26 03:56:51;;;;;;;1.90;1.40;;;1.20;99.90;;;;;;6222707;28;20381;-71
2021/04/26 03:59:53;;;;;;;2.43;1.70;;;1.20;99.90;;;;;;6237760;28;20242;-71
2021/04/26 04:02:54;;;;;;;1.73;1.50;;;1.20;99.90;;;;;;6253790;28;20699;-71
2021/04/26 04:05:57;;;;;;;3.40;1.43;;;1.30;99.90;;;;;;6233807;28;20715;-71
2021/04/26 04:09:18;;;;;;;3.70;1.60;;;1.30;99.90;;;;;;6230294;28;20219;-71
2021/04/26 04:12:58;;;;;;;6.30;1.90;;;1.40;99.90;;;;;;6211086;28;20279;-71
2021/04/26 04:16:01;;;;;;;3.33;1.57;;;1.40;99.90;;;;;;6212846;28;20239;-71
2021/04/26 04:19:03;;;;;;;2.70;1.80;;;1.40;99.90;;;;;;6233942;28;20245;-71
2021/04/26 04:22:09;;;;;;;4.73;2.47;;;1.40;99.90;;;;;;6237986;28;20235;-71
2021/04/26 04:25:15;;;;;;;2.70;1.50;;;1.30;99.90;;;;;;6236552;28;20233;-71
2021/04/26 04:28:17;;;;;;;3.33;1.50;;;1.30;99.90;;;;;;6237144;28;20238;-71
2021/04/26 04:31:21;;;;;;;1.80;1.60;;;1.30;99.90;;;;;;6229112;28;20397;-71
2021/04/26 04:34:39;;;;;;;4.50;1.67;;;1.20;99.90;;;;;;6246105;28;20239;-71
2021/04/26 04:37:59;;;;;;;1.80;1.40;;;1.20;99.90;;;;;;6235346;28;20263;-71
2021/04/26 04:41:19;;;;;;;2.60;1.57;;;1.10;99.90;;;;;;6234538;28;20606;-71
2021/04/26 04:44:21;;;;;;;2.40;1.80;;;1.10;99.90;;;;;;6233793;28;20238;-71
2021/04/26 04:47:23;;;;;;;3.00;1.60;;;1.10;99.90;;;;;;6235491;28;20234;-71
2021/04/26 04:50:25;;;;;;;4.23;1.80;;;1.10;99.90;;;;;;6233394;28;20242;-71
2021/04/26 04:53:34;;;;;;;2.57;1.70;;;1.10;99.90;;;;;;6222094;28;20232;-71
2021/04/26 04:56:38;;;;;;;2.70;1.50;;;1.10;99.90;;;;;;6218956;28;20606;-71
2021/04/26 04:59:41;;;;;;;1.97;1.60;;;1.10;99.90;;;;;;6239682;28;20276;-71
2021/04/26 05:02:53;;;;;;;3.07;1.33;;;1.10;99.90;;;;;;6258896;28;20238;-71
2021/04/26 05:06:14;;;;;;;3.57;1.53;;;1.20;99.90;;;;;;6211559;28;20232;-71
2021/04/26 05:09:51;;;;;;;1.40;1.30;;;1.30;99.90;;;;;;6205980;28;20240;-71
2021/04/26 05:13:12;;;;;;;1.53;1.37;;;1.40;99.90;;;;;;6210674;28;20276;-71
2021/04/26 05:16:28;;;;;;;4.20;1.50;;;1.40;99.90;;;;;;6217155;28;20803;-71
2021/04/26 05:19:57;;;;;;;2.40;1.63;;;1.50;99.90;;;;;;6227909;28;20301;-71
2021/04/26 05:22:59;;;;;;;2.70;1.57;;;1.50;99.90;;;;;;6239059;28;20242;-71
2021/04/26 05:27:04;;;;;;;3.40;1.87;;;1.60;99.90;;;;;;6234887;28;20311;-71
2021/04/26 05:30:31;;;;;;;3.63;1.73;;;1.60;99.90;;;;;;6217562;28;20709;-71
2021/04/26 05:33:34;;;;;;;2.20;1.23;;;1.60;99.90;;;;;;6240397;28;20637;-71
2021/04/26 05:36:59;;;;;;;1.97;1.50;;;1.70;99.90;;;;;;6258217;28;20719;-71
2021/04/26 05:40:01;;;;;;;2.10;1.57;;;1.70;99.90;;;;;;6232104;28;20652;-71
2021/04/26 05:43:09;;;;;;;1.90;1.50;;;1.80;99.90;;;;;;6233236;28;20607;-71
2021/04/26 05:51:00;;;;;;;2.20;1.50;;;1.90;99.90;;;;;;6169239;28;20218;-71
2021/04/26 05:54:02;;;;;;;2.40;1.40;;;2.00;99.90;;;;;;6181596;28;20225;-71
2021/04/26 06:01:09;;;;;;;2.33;1.17;;;2.20;99.90;;;;;;6181700;28;20233;-71
2021/04/26 06:04:11;;;;;;;3.40;1.90;;;2.40;99.90;;;;;;6183075;28;20645;-71
2021/04/26 06:07:13;;;;;;;2.20;1.97;;;2.60;99.90;;;;;;6181428;28;20324;-71
2021/04/26 06:10:14;;;;;;;1.97;1.77;;;2.80;99.90;;;;;;6200949;28;20283;-71
2021/04/26 06:13:17;;;;;;;2.13;1.80;;;3.00;99.90;;;;;;6188822;28;20298;-71
2021/04/26 06:16:19;;;;;;;2.77;1.83;;;3.10;99.90;;;;;;6187459;28;20236;-71
2021/04/26 06:19:20;;;;;;;2.83;1.90;;;3.30;99.90;;;;;;6195526;28;20589;-71
2021/04/26 06:22:22;;;;;;;2.90;1.97;;;3.60;99.90;;;;;;6255920;28;20723;-71
2021/04/26 06:25:24;;;;;;;4.57;1.90;;;3.90;99.90;;;;;;6222787;28;20362;-71
2021/04/26 06:28:26;;;;;;;3.17;1.87;;;4.20;99.90;;;;;;6238619;28;20372;-72
2021/04/26 06:31:29;;;;;;;5.20;2.50;;;4.40;99.90;;;;;;6248592;28;20730;-71
2021/04/26 06:34:31;;;;;;;3.07;1.77;;;4.60;99.90;;;;;;6232264;28;20648;-71
2021/04/26 06:37:34;;;;;;;4.17;2.40;;;4.70;99.90;;;;;;6214587;28;20236;-72
2021/04/26 06:40:36;;;;;;;4.70;1.90;;;4.80;97.30;;;;;;6214402;28;20327;-72
2021/04/26 06:43:38;;;;;;;2.87;2.03;;;5.10;93.20;;;;;;6214183;28;20248;-72
2021/04/26 06:46:40;;;;;;;5.33;2.20;;;5.40;93.90;;;;;;6237826;28;20258;-73
2021/04/26 06:49:42;;;;;;;3.83;1.90;;;5.70;88.40;;;;;;6258176;28;20314;-72
2021/04/26 06:52:49;;;;;;;3.60;2.30;;;6.00;89.20;;;;;;6256331;28;20254;-71
2021/04/26 06:55:50;;;;;;;2.53;1.80;;;6.20;86.70;;;;;;6256438;28;20574;-72
2021/04/26 06:58:52;;;;;;;2.83;2.13;;;6.50;80.50;;;;;;6255465;28;20248;-72
2021/04/26 07:01:54;;;;;;;5.17;2.07;;;6.80;79.50;;;;;;6256183;28;20690;-72
2021/04/26 07:04:56;;;;;;;4.27;2.23;;;7.10;73.30;;;;;;6256181;28;20241;-72
2021/04/26 07:07:58;;;;;;;2.87;2.00;;;7.30;71.40;;;;;;6256078;28;20257;-72
2021/04/26 07:10:59;;;;;;;4.80;2.17;;;7.50;73.10;;;;;;6256291;28;20379;-71
2021/04/26 07:14:01;;;;;;;2.47;2.00;;;7.70;69.80;;;;;;6258317;28;20605;-71
2021/04/26 07:17:03;;;;;;;2.77;1.97;;;8.00;67.80;;;;;;6256081;28;20270;-71
2021/04/26 07:20:07;;;;;;;4.33;1.97;;;8.20;66.20;;;;;;6238576;28;20242;-72
2021/04/26 07:23:09;;;;;;;5.10;2.50;;;8.40;66.90;;;;;;6254899;28;20313;-73
2021/04/26 07:26:12;;;;;;;4.10;2.10;;;8.60;64.60;;;;;;6237804;28;20231;-72
2021/04/26 07:29:14;;;;;;;2.83;1.97;;;8.90;62.50;;;;;;6236530;28;20691;-72
2021/04/26 07:32:16;;;;;;;3.67;2.47;;;9.20;60.40;;;;;;6224041;28;20773;-72
2021/04/26 07:35:18;;;;;;;4.57;2.23;;;9.50;59.80;;;;;;6231294;28;20276;-73
2021/04/26 07:38:21;;;;;;;3.00;1.90;;;9.80;58.50;;;;;;6231052;28;20929;-72
2021/04/26 07:41:22;;;;;;;2.47;2.00;;;10.00;58.40;;;;;;6229753;28;20232;-72
2021/04/26 07:44:26;;;;;;;5.30;2.20;;;10.10;57.80;;;;;;6230913;28;20262;-72
2021/04/26 07:47:28;;;;;;;2.43;1.70;;;10.40;58.60;;;;;;6243129;28;20260;-72
2021/04/26 07:50:30;;;;;;;2.57;2.20;;;10.70;55.60;;;;;;6237469;28;20245;-73
2021/04/26 07:53:32;;;;;;;2.73;1.80;;;11.10;55.80;;;;;;6254957;28;20371;-73
2021/04/26 07:56:34;;;;;;;3.23;2.10;;;11.20;54.10;;;;;;6254422;28;20244;-72
2021/04/26 07:59:37;;;;;;;2.37;1.83;;;11.30;55.00;;;;;;6237217;28;20229;-73
2021/04/26 08:02:39;;;;;;;2.47;1.70;;;11.50;52.50;;;;;;6238041;28;20230;-72
2021/04/26 08:05:45;;;;;;;2.83;1.87;;;11.30;52.00;;;;;;6229812;28;20318;-73
2021/04/26 08:08:47;;;;;;;5.73;2.40;;;11.50;53.50;;;;;;6212735;28;20710;-72
2021/04/26 08:11:49;;;;;;;3.77;2.40;;;11.70;52.70;;;;;;6230853;28;20744;-72
2021/04/26 08:14:51;;;;;;;4.20;2.23;;;11.90;52.60;;;;;;6211937;28;20262;-72
2021/04/26 08:17:53;;;;;;;2.50;2.03;;;12.30;53.90;;;;;;6230245;28;20794;-72
2021/04/26 08:20:55;;;;;;;5.20;2.00;;;12.40;51.50;;;;;;6230061;28;20704;-72
2021/04/26 08:23:57;;;;;;;4.83;2.20;;;12.50;52.50;;;;;;6254488;28;20235;-72
2021/04/26 08:26:59;;;;;;;4.53;2.27;;;12.70;49.10;;;;;;6255462;28;20576;-73
2021/04/26 08:30:02;;;;;;;2.57;2.20;;;12.80;49.80;;;;;;6237704;28;20381;-73
2021/04/26 08:33:04;;;;;;;2.70;2.27;;;12.90;48.30;;;;;;6237692;28;20300;-73
2021/04/26 08:36:08;;;;;;;2.80;2.03;;;12.60;48.60;;;;;;6253863;28;20239;-72
2021/04/26 08:39:10;;;;;;;4.50;2.00;;;12.80;48.80;;;;;;6254608;28;20242;-73
2021/04/26 08:42:16;;;;;;;2.83;2.20;;;13.10;48.20;;;;;;6255005;28;20696;-72
2021/04/26 08:45:19;;;;;;;3.33;2.20;;;13.50;50.00;;;;;;6255603;28;20795;-73
2021/04/26 08:48:23;;;;;;;3.53;1.90;;;13.40;46.30;;;;;;6237290;28;20240;-73
2021/04/26 08:51:26;;;;;;;3.03;1.63;;;13.20;46.60;;;;;;6254091;28;20815;-73
2021/04/26 08:54:27;;;;;;;2.50;2.07;;;13.50;48.10;;;;;;6253735;28;20231;-73
2021/04/26 08:57:29;;;;;;;2.10;1.90;;;13.90;47.70;;;;;;6219217;28;20782;-73
2021/04/26 09:00:32;;;;;;;2.73;1.97;;;14.10;45.10;;;;;;6233737;28;20337;-72
2021/04/26 09:03:37;;;;;;;4.77;2.50;;;13.90;43.70;;;;;;6237560;28;20686;-73
2021/04/26 09:07:02;;;;;;;3.13;2.40;;;13.70;44.20;;;;;;6254009;28;20786;-72
2021/04/26 09:10:04;;;;;;;3.87;2.37;;;13.90;46.70;;;;;;6255009;28;20592;-72
2021/04/26 09:13:28;;;;;;;4.43;2.27;;;14.50;45.90;;;;;;6236351;28;20636;-73
2021/04/26 09:16:31;;;;;;;3.60;2.30;;;14.80;43.20;;;;;;6236506;28;20336;-73
2021/04/26 09:19:33;;;;;;;3.77;2.03;;;14.80;42.40;;;;;;6253480;28;20310;-72
2021/04/26 09:22:50;;;;;;;3.80;2.40;;;15.10;45.70;;;;;;6239782;28;20335;-73
2021/04/26 09:25:52;;;;;;;3.73;2.30;;;15.40;42.30;;;;;;6240979;28;20575;-72
2021/04/26 09:29:19;;;;;;;3.57;2.23;;;15.30;44.20;;;;;;6240843;28;20822;-72
2021/04/26 09:32:23;;;;;;;3.90;2.50;;;15.30;43.10;;;;;;6178424;28;20652;-73
2021/04/26 09:35:28;;;;;;;3.70;2.47;;;14.90;42.10;;;;;;6182990;28;20810;-73
2021/04/26 09:38:32;;;;;;;3.30;2.30;;;14.90;42.60;;;;;;6186241;28;20344;-72
2021/04/26 09:41:34;;;;;;;3.33;2.40;;;14.50;42.20;;;;;;6166572;28;20335;-72
2021/04/26 09:44:36;;;;;;;3.17;2.10;;;14.10;43.80;;;;;;6185805;28;20607;-72
2021/04/26 09:47:38;;;;;;;3.30;2.20;;;14.30;44.70;;;;;;6197901;28;20723;-72
2021/04/26 09:51:06;;;;;;;3.73;2.30;;;14.20;42.70;;;;;;6208826;28;21077;-72
2021/04/26 09:54:08;;;;;;;4.77;2.90;;;14.00;42.80;;;;;;6208296;28;20252;-72
2021/04/26 09:57:10;;;;;;;3.20;2.37;;;14.00;44.20;;;;;;6191512;28;20689;-72
2021/04/26 10:00:13;;;;;;;3.13;2.10;;;14.30;45.60;;;;;;6209500;28;20207;-72
2021/04/26 10:03:17;;;;;;;4.10;2.60;;;14.80;45.40;;;;;;6186711;28;20695;-71
2021/04/26 10:06:20;;;;;;;3.27;2.10;;;15.20;44.20;;;;;;6186977;28;20200;-73
2021/04/26 10:09:23;;;;;;;4.37;2.50;;;15.40;43.80;;;;;;6169986;28;20709;-72
2021/04/26 10:12:25;;;;;;;2.60;2.00;;;15.10;42.30;;;;;;6188465;28;20228;-72
2021/04/26 10:15:28;;;;;;;5.40;2.10;;;15.20;43.50;;;;;;6184524;28;20256;-71
2021/04/26 10:18:37;;;;;;;3.50;2.00;;;15.60;43.60;;;;;;6182526;28;20245;-72
2021/04/26 10:21:51;;;;;;;4.57;2.33;;;16.10;41.60;;;;;;6182002;28;20241;-72
2021/04/26 10:24:56;;;;;;;4.67;2.20;;;16.20;40.90;;;;;;6183914;28;20325;-73
2021/04/26 10:27:59;;;;;;;4.27;2.43;;;16.10;40.80;;;;;;6183776;28;20249;-73
2021/04/26 10:31:15;;;;;;;3.70;2.10;;;15.70;40.70;;;;;;6201944;28;20232;-72
2021/04/26 10:34:18;;;;;;;3.67;2.30;;;15.30;41.60;;;;;;6230070;28;20281;-71
2021/04/26 10:37:23;;;;;;;3.10;2.07;;;15.40;43.20;;;;;;6231491;28;20333;-72
2021/04/26 10:40:36;;;;;;;3.90;2.57;;;15.20;43.70;;;;;;6232649;28;20236;-71
2021/04/26 10:43:38;;;;;;;6.40;2.57;;;15.00;45.50;;;;;;6237296;28;20627;-71
2021/04/26 10:46:41;;;;;;;3.23;1.90;;;15.00;45.90;;;;;;6231715;28;20768;-72
2021/04/26 10:49:45;;;;;;;4.03;2.17;;;14.50;45.90;;;;;;6231302;28;20235;-72
2021/04/26 10:52:49;;;;;;;4.17;2.17;;;14.50;47.50;;;;;;6232992;28;20333;-72
2021/04/26 10:55:53;;;;;;;5.67;2.40;;;14.40;47.10;;;;;;6231734;28;20595;-71
2021/04/26 10:59:23;;;;;;;3.97;2.70;;;14.50;47.40;;;;;;6230662;28;20242;-72
2021/04/26 11:02:31;;;;;;;4.10;2.47;;;14.70;47.30;;;;;;6215176;28;20602;-73
2021/04/26 11:05:39;;;;;;;2.60;2.13;;;14.50;47.90;;;;;;6205448;28;20231;-72
2021/04/26 11:08:50;;;;;;;4.43;2.43;;;14.50;46.50;;;;;;6208062;28;20239;-73
2021/04/26 11:12:00;;;;;;;3.57;2.67;;;14.70;46.90;;;;;;6205103;28;20243;-71
2021/04/26 11:15:19;;;;;;;4.37;2.20;;;14.90;46.50;;;;;;6207152;28;20244;-72
2021/04/26 11:18:21;;;;;;;2.77;2.43;;;14.90;46.00;;;;;;6207302;28;20236;-72
2021/04/26 11:21:47;;;;;;;3.73;2.73;;;14.90;47.30;;;;;;6228438;28;20709;-72
2021/04/26 11:24:52;;;;;;;3.70;2.10;;;15.10;45.90;;;;;;6232213;28;20721;-72
2021/04/26 11:27:58;;;;;;;4.23;2.40;;;15.50;47.00;;;;;;6229715;28;20232;-72
2021/04/26 11:31:00;;;;;;;3.57;2.50;;;15.70;44.30;;;;;;6246321;28;20238;-72
2021/04/26 11:34:02;;;;;;;4.60;2.23;;;16.00;46.20;;;;;;6221806;28;20235;-72
2021/04/26 11:37:04;;;;;;;3.90;2.40;;;15.80;44.60;;;;;;6237322;28;20238;-71
2021/04/26 11:40:19;;;;;;;5.87;2.67;;;16.30;46.20;;;;;;6255586;28;20243;-72
2021/04/26 11:43:21;;;;;;;4.83;2.50;;;16.30;43.10;;;;;;6255465;28;20239;-72
2021/04/26 11:46:24;;;;;;;8.27;2.70;;;16.30;44.30;;;;;;6255856;28;20219;-72
2021/04/26 11:49:27;;;;;;;3.97;2.20;;;16.40;43.60;;;;;;6255200;28;20239;-72
2021/04/26 11:52:31;;;;;;;4.40;2.50;;;16.50;43.50;;;;;;6254609;28;20234;-72
2021/04/26 11:55:33;;;;;;;3.80;2.57;;;16.40;42.70;;;;;;6253496;28;20317;-72
2021/04/26 11:58:35;;;;;;;5.60;3.00;;;16.10;43.40;;;;;;6255048;28;20245;-73
2021/04/26 12:01:51;;;;;;;4.17;2.80;;;16.00;44.10;;;;;;6245428;28;20235;-73
2021/04/26 12:04:56;;;;;;;4.10;2.33;;;15.80;44.30;;;;;;6212145;28;20236;-73
2021/04/26 12:07:59;;;;;;;5.30;2.77;;;15.80;45.50;;;;;;6231880;28;20243;-73
2021/04/26 12:11:14;;;;;;;4.13;2.60;;;16.20;45.70;;;;;;6212198;28;20231;-72
2021/04/26 12:14:15;;;;;;;5.37;2.67;;;16.00;46.30;;;;;;6213506;28;20236;-72
2021/04/26 12:17:22;;;;;;;6.87;3.33;;;16.20;44.90;;;;;;6212196;28;20244;-73
2021/04/26 12:20:35;;;;;;;5.00;3.10;;;16.60;44.70;;;;;;6245528;28;20715;-72
2021/04/26 12:23:38;;;;;;;5.00;2.80;;;16.30;44.00;;;;;;6261435;28;20714;-72
2021/04/26 12:26:41;;;;;;;10.87;3.10;;;16.10;44.40;;;;;;6279451;28;20222;-71
2021/04/26 12:29:45;;;;;;;5.17;3.00;;;16.10;44.10;;;;;;6260580;28;20242;-71
2021/04/26 12:32:50;;;;;;;2.87;2.20;;;16.60;45.90;;;;;;6248876;28;20239;-72
2021/04/26 12:35:54;;;;;;;7.20;3.47;;;17.60;44.00;;;;;;6237409;28;20785;-72
2021/04/26 12:38:56;;;;;;;5.30;2.73;;;17.90;42.40;;;;;;6254082;28;20613;-72
2021/04/26 12:42:09;;;;;;;3.27;2.43;;;17.50;43.30;;;;;;6254331;28;20244;-72
2021/04/26 12:45:22;;;;;;;5.77;3.00;;;17.60;43.90;;;;;;6254903;28;20321;-72
2021/04/26 12:48:33;;;;;;;4.63;2.90;;;16.80;43.50;;;;;;6236365;28;20234;-72
2021/04/26 12:51:41;;;;;;;5.97;3.03;;;16.70;44.40;;;;;;6254972;28;20604;-73
2021/04/26 12:55:04;;;;;;;3.17;2.80;;;16.70;43.30;;;;;;6236500;28;20278;-72
2021/04/26 12:58:16;;;;;;;2.43;2.23;;;17.00;44.30;;;;;;6258720;28;20246;-72
2021/04/26 13:01:25;;;;;;;3.47;2.73;;;18.10;43.60;;;;;;6253289;28;20239;-72
2021/04/26 13:04:33;;;;;;;3.50;2.67;;;18.70;41.50;;;;;;6283613;28;20274;-73
2021/04/26 13:07:35;;;;;;;6.87;2.80;;;18.90;41.10;;;;;;6248861;28;20233;-72
2021/04/26 13:10:38;;;;;;;7.07;2.80;;;18.70;40.90;;;;;;6248502;28;20230;-72
2021/04/26 13:14:01;;;;;;;5.93;2.30;;;17.90;42.10;;;;;;6283764;28;20238;-72
2021/04/26 13:17:09;;;;;;;5.63;3.47;;;17.30;42.50;;;;;;6269284;28;20237;-72
2021/04/26 13:20:21;;;;;;;3.47;2.60;;;16.90;42.20;;;;;;6270811;28;20227;-72
2021/04/26 13:23:26;;;;;;;4.23;2.70;;;17.00;43.20;;;;;;6240123;28;20231;-72
2021/04/26 13:26:31;;;;;;;3.50;2.50;;;17.60;42.60;;;;;;6241826;28;20242;-72
2021/04/26 13:29:34;;;;;;;7.93;2.80;;;17.90;42.10;;;;;;6257283;28;20242;-73
2021/04/26 13:32:36;;;;;;;4.33;2.73;;;18.10;42.00;;;;;;6240981;28;21058;-72
2021/04/26 13:35:38;;;;;;;3.17;2.33;;;18.40;40.80;;;;;;6240360;28;20645;-72
2021/04/26 13:38:40;;;;;;;3.40;2.37;;;18.50;40.50;;;;;;6240728;28;20246;-72
2021/04/26 13:41:44;;;;;;;3.90;2.93;;;19.10;40.50;;;;;;6240512;28;20938;-72
2021/04/26 13:44:46;;;;;;;4.30;2.43;;;19.10;38.90;;;;;;6258945;28;20247;-73
2021/04/26 13:47:48;;;;;;;6.57;2.77;;;18.90;39.40;;;;;;6223581;28;20707;-72
2021/04/26 13:50:50;;;;;;;4.03;2.37;;;19.20;39.60;;;;;;6257118;28;20237;-72
2021/04/26 13:53:52;;;;;;;4.73;2.70;;;19.90;38.80;;;;;;6239603;28;20230;-72
2021/04/26 13:56:55;;;;;;;5.23;2.33;;;20.70;38.20;;;;;;6239604;28;20288;-73
2021/04/26 13:59:56;;;;;;;4.23;2.90;;;21.10;37.30;;;;;;6239828;28;20249;-72
2021/04/26 14:02:58;;;;;;;5.13;2.63;;;21.60;36.90;;;;;;6220440;28;20248;-73
2021/04/26 14:06:01;;;;;;;5.77;3.10;;;21.70;36.50;;;;;;6216750;28;20220;-72
2021/04/26 14:09:09;;;;;;;4.83;2.70;;;21.60;34.90;;;;;;6231729;28;20203;-72
2021/04/26 14:12:11;;;;;;;4.83;3.10;;;21.70;35.60;;;;;;6233150;28;20212;-73
2021/04/26 14:15:14;;;;;;;4.80;2.93;;;21.70;36.00;;;;;;6214556;28;20227;-73
2021/04/26 14:18:16;;;;;;;4.90;2.60;;;21.70;35.70;;;;;;6215809;28;20603;-73
2021/04/26 14:21:19;;;;;;;4.37;2.80;;;21.90;34.80;;;;;;6235865;28;20222;-73
2021/04/26 14:24:21;;;;;;;5.30;2.73;;;21.40;35.00;;;;;;6256238;28;20322;-72
2021/04/26 14:27:23;;;;;;;6.37;3.43;;;21.10;35.20;;;;;;6257469;28;20298;-72
2021/04/26 14:30:26;;;;;;;4.17;2.57;;;21.10;35.80;;;;;;6256764;28;20636;-72
2021/04/26 14:33:27;;;;;;;4.17;2.50;;;21.70;35.50;;;;;;6216274;28;20231;-72
2021/04/26 14:36:29;;;;;;;3.30;2.80;;;22.80;34.20;;;;;;6232062;28;20820;-73
2021/04/26 14:39:31;;;;;;;5.93;2.70;;;23.70;33.30;;;;;;6232132;28;20239;-72
2021/04/26 14:42:33;;;;;;;4.07;2.43;;;23.60;32.20;;;;;;6231929;28;20228;-72
2021/04/26 14:45:35;;;;;;;4.57;2.70;;;24.00;33.10;;;;;;6214334;28;20231;-73
2021/04/26 14:48:38;;;;;;;4.47;2.70;;;23.70;31.60;;;;;;6235717;28;20242;-73
2021/04/26 14:51:40;;;;;;;4.07;2.53;;;23.90;32.20;;;;;;6238327;28;20227;-73
2021/04/26 14:54:42;;;;;;;2.67;2.23;;;24.40;31.60;;;;;;6255538;28;20235;-72
2021/04/26 14:57:45;;;;;;;3.83;2.50;;;24.90;31.10;;;;;;6256283;28;20246;-72
2021/04/26 15:00:47;;;;;;;3.40;2.90;;;25.00;30.10;;;;;;6253977;28;20246;-73
2021/04/26 15:03:49;;;;;;;5.20;2.80;;;24.30;30.40;;;;;;6213386;28;20235;-73
2021/04/26 15:06:51;;;;;;;3.47;2.40;;;23.70;30.40;;;;;;6231876;28;20236;-73
2021/04/26 15:09:53;;;;;;;4.53;2.50;;;23.30;31.30;;;;;;6213481;28;20308;-72
2021/04/26 15:12:55;;;;;;;4.13;2.60;;;23.30;31.20;;;;;;6232170;28;20620;-73
2021/04/26 15:15:57;;;;;;;6.60;2.63;;;23.40;31.60;;;;;;6231229;28;20243;-73
2021/04/26 15:18:59;;;;;;;3.73;2.50;;;23.90;31.40;;;;;;6216421;28;20597;-73
2021/04/26 15:22:02;;;;;;;4.77;2.50;;;24.30;30.90;;;;;;6260978;28;20609;-72
2021/04/26 15:25:09;;;;;;;4.33;2.43;;;24.60;30.40;;;;;;6255820;28;20377;-72
2021/04/26 15:28:14;;;;;;;3.67;2.73;;;25.00;30.40;;;;;;6255844;28;20234;-72
2021/04/26 15:31:16;;;;;;;5.83;2.90;;;24.70;30.20;;;;;;6254683;28;20239;-73
2021/04/26 15:34:18;;;;;;;4.13;2.87;;;24.60;30.30;;;;;;6256003;28;20245;-72
2021/04/26 15:37:21;;;;;;;3.57;2.63;;;24.60;30.20;;;;;;6237565;28;20266;-72
2021/04/26 15:40:24;;;;;;;3.17;2.20;;;24.20;30.90;;;;;;6255743;28;20234;-72
2021/04/26 15:43:27;;;;;;;4.63;2.27;;;24.40;30.90;;;;;;6255834;28;20230;-72
2021/04/26 15:46:29;;;;;;;6.33;3.10;;;24.40;31.10;;;;;;6254704;28;20281;-72
2021/04/26 15:49:34;;;;;;;3.53;2.20;;;24.20;31.00;;;;;;6254888;28;20437;-72
2021/04/26 15:52:36;;;;;;;3.10;2.33;;;24.00;31.10;;;;;;6254657;28;20436;-72
2021/04/26 15:55:39;;;;;;;4.20;2.97;;;23.70;31.50;;;;;;6256218;28;20321;-72
2021/04/26 15:58:42;;;;;;;3.93;2.70;;;22.20;32.80;;;;;;6254606;28;20239;-72
2021/04/26 16:01:44;;;;;;;3.67;2.77;;;20.50;34.40;;;;;;6246127;28;20239;-71
2021/04/26 16:04:46;;;;;;;5.43;2.87;;;18.90;36.80;;;;;;6212481;28;21160;-71
2021/04/26 16:07:48;;;;;;;3.77;2.83;;;17.40;39.10;;;;;;6231132;28;20314;-72
2021/04/26 16:10:51;;;;;;;3.83;2.67;;;16.50;40.60;;;;;;6230128;28;20337;-71
2021/04/26 16:13:53;;;;;;;8.00;2.97;;;15.90;41.40;;;;;;6229094;28;20258;-71
2021/04/26 16:16:56;;;;;;;4.80;3.00;;;15.30;42.10;;;;;;6229515;28;20235;-71
2021/04/26 16:19:58;;;;;;;5.73;3.27;;;14.70;43.00;;;;;;6240361;28;20239;-71
2021/04/26 16:23:00;;;;;;;4.60;2.80;;;14.20;44.10;;;;;;6258380;28;20241;-71